createdAt,value
2018-10-18T00:00:32.526Z,10.20
2018-10-18T00:03:00.715Z,10.20
2018-10-18T00:05:28.959Z,10.20
2018-10-18T00:07:57.192Z,10.10
2018-10-18T00:10:25.414Z,10.10
2018-10-18T00:12:53.591Z,10.00
2018-10-18T00:15:21.783Z,9.90
2018-10-18T00:17:50.044Z,9.80
2018-10-18T00:20:18.263Z,9.80
2018-10-18T00:22:46.862Z,9.70
2018-10-18T00:25:15.647Z,9.70
2018-10-18T00:27:43.843Z,9.70
2018-10-18T00:30:13.201Z,9.60
2018-10-18T00:32:42.219Z,9.50
2018-10-18T00:35:10.710Z,9.50
2018-10-18T00:37:39.236Z,9.50
2018-10-18T00:40:08.581Z,9.50
2018-10-18T00:42:36.804Z,9.50
2018-10-18T00:45:05.823Z,9.60
2018-10-18T00:47:34.008Z,9.50
2018-10-18T00:50:02.233Z,9.60
2018-10-18T00:52:30.351Z,9.50
2018-10-18T00:54:58.542Z,8.60
2018-10-18T00:57:26.730Z,9.30
2018-10-18T00:59:54.958Z,9.30
2018-10-18T01:02:23.103Z,9.40
2018-10-18T01:04:51.338Z,9.30
2018-10-18T01:07:19.512Z,9.30
2018-10-18T01:09:47.692Z,9.50
2018-10-18T01:12:16.015Z,9.30
2018-10-18T01:14:44.105Z,9.30
2018-10-18T01:17:12.284Z,9.30
2018-10-18T01:19:40.494Z,9.30
2018-10-18T01:22:08.632Z,9.30
2018-10-18T01:24:37.353Z,9.30
2018-10-18T01:27:06.040Z,9.20
2018-10-18T01:29:34.200Z,9.10
2018-10-18T01:32:02.409Z,9.00
2018-10-18T01:34:30.545Z,8.90
2018-10-18T01:36:58.743Z,8.80
2018-10-18T01:39:26.911Z,8.80
2018-10-18T01:41:55.135Z,8.80
2018-10-18T01:44:23.280Z,8.80
2018-10-18T01:46:51.799Z,8.80
2018-10-18T01:49:20.009Z,8.90
2018-10-18T01:51:48.175Z,8.90
2018-10-18T01:54:16.455Z,8.90
2018-10-18T01:56:44.585Z,8.90
2018-10-18T01:59:12.808Z,9.00
2018-10-18T02:01:41.024Z,8.90
2018-10-18T02:04:09.207Z,8.90
2018-10-18T02:06:37.387Z,8.80
2018-10-18T02:09:08.264Z,8.80
2018-10-18T02:11:43.100Z,8.90
2018-10-18T02:14:11.315Z,8.80
2018-10-18T02:16:39.515Z,8.70
2018-10-18T02:19:07.724Z,8.70
2018-10-18T02:21:36.953Z,8.60
2018-10-18T02:24:05.499Z,8.60
2018-10-18T02:26:33.589Z,8.60
2018-10-18T02:29:01.801Z,8.50
2018-10-18T02:31:30.017Z,8.50
2018-10-18T02:33:58.214Z,8.50
2018-10-18T02:36:26.399Z,8.50
2018-10-18T02:38:54.614Z,8.40
2018-10-18T02:41:22.831Z,8.40
2018-10-18T02:43:50.995Z,8.40
2018-10-18T02:46:19.156Z,8.40
2018-10-18T02:48:47.330Z,8.30
2018-10-18T02:51:15.482Z,8.20
2018-10-18T02:53:43.646Z,8.20
2018-10-18T02:56:11.815Z,8.30
2018-10-18T02:58:39.988Z,8.30
2018-10-18T03:01:08.207Z,8.30
2018-10-18T03:03:36.371Z,8.40
2018-10-18T03:06:04.584Z,8.40
2018-10-18T03:08:32.731Z,8.40
2018-10-18T03:11:00.912Z,8.30
2018-10-18T03:13:29.092Z,8.20
2018-10-18T03:15:57.294Z,8.30
2018-10-18T03:18:25.415Z,8.20
2018-10-18T03:21:57.934Z,8.20
2018-10-18T03:24:26.095Z,8.30
2018-10-18T03:26:54.585Z,8.00
2018-10-18T03:29:22.729Z,7.90
2018-10-18T03:31:50.886Z,7.90
2018-10-18T03:34:19.096Z,7.90
2018-10-18T03:36:47.300Z,7.90
2018-10-18T03:39:15.465Z,7.90
2018-10-18T03:41:43.615Z,7.90
2018-10-18T03:44:11.800Z,7.90
2018-10-18T03:46:39.990Z,8.00
2018-10-18T03:49:08.178Z,8.10
2018-10-18T03:51:36.427Z,8.10
2018-10-18T03:54:04.806Z,8.00
2018-10-18T03:56:32.940Z,8.00
2018-10-18T03:59:01.148Z,8.00
2018-10-18T04:01:29.363Z,8.00
2018-10-18T04:03:57.576Z,7.90
2018-10-18T04:06:25.762Z,7.90
2018-10-18T04:08:54.099Z,7.90
2018-10-18T04:11:22.285Z,7.80
2018-10-18T04:13:50.479Z,7.80
2018-10-18T04:16:18.656Z,7.80
2018-10-18T04:18:46.975Z,7.80
2018-10-18T04:21:15.197Z,7.80
2018-10-18T04:23:43.395Z,7.70
2018-10-18T04:26:11.585Z,7.70
2018-10-18T04:28:39.821Z,7.70
2018-10-18T04:31:07.995Z,7.60
2018-10-18T04:33:36.212Z,7.60
2018-10-18T04:36:04.486Z,7.50
2018-10-18T04:38:32.606Z,7.50
2018-10-18T04:41:00.783Z,7.60
2018-10-18T04:43:28.966Z,7.60
2018-10-18T04:45:57.131Z,7.50
2018-10-18T04:48:25.408Z,7.60
2018-10-18T04:50:53.496Z,7.50
2018-10-18T04:53:21.650Z,7.50
2018-10-18T04:55:49.817Z,7.60
2018-10-18T04:58:18.037Z,7.50
2018-10-18T05:00:46.231Z,7.60
2018-10-18T05:03:14.477Z,7.60
2018-10-18T05:05:49.445Z,7.60
2018-10-18T05:08:17.592Z,7.50
2018-10-18T05:10:45.858Z,7.40
2018-10-18T05:13:14.055Z,7.40
2018-10-18T05:15:42.219Z,7.50
2018-10-18T05:18:10.424Z,7.40
2018-10-18T05:20:38.761Z,7.30
2018-10-18T05:23:07.398Z,7.30
2018-10-18T05:25:35.844Z,7.10
2018-10-18T05:28:04.435Z,7.10
2018-10-18T05:30:32.859Z,7.10
2018-10-18T05:33:01.307Z,7.20
2018-10-18T05:35:29.539Z,7.30
2018-10-18T05:37:57.709Z,7.20
2018-10-18T05:40:25.892Z,7.20
2018-10-18T05:42:54.110Z,7.20
2018-10-18T05:45:22.294Z,7.00
2018-10-18T05:47:50.561Z,7.00
2018-10-18T05:50:18.819Z,7.00
2018-10-18T05:52:47.024Z,7.00
2018-10-18T05:55:15.560Z,7.10
2018-10-18T05:57:44.074Z,7.00
2018-10-18T06:00:15.863Z,6.90
2018-10-18T06:02:44.656Z,6.90
2018-10-18T06:05:14.352Z,6.90
2018-10-18T06:07:43.536Z,6.90
2018-10-18T06:10:24.090Z,7.00
2018-10-18T06:12:52.639Z,7.10
2018-10-18T06:15:21.319Z,7.10
2018-10-18T06:17:49.647Z,7.20
2018-10-18T06:20:18.277Z,7.20
2018-10-18T06:22:46.601Z,7.20
2018-10-18T06:25:14.910Z,7.20
2018-10-18T06:27:43.128Z,7.30
2018-10-18T06:30:13.497Z,7.30
2018-10-18T06:32:41.747Z,7.30
2018-10-18T06:35:11.399Z,7.50
2018-10-18T06:37:39.709Z,7.60
2018-10-18T06:40:11.712Z,7.60
2018-10-18T06:42:40.415Z,7.80
2018-10-18T06:45:11.101Z,7.90
2018-10-18T06:47:39.936Z,8.00
2018-10-18T06:50:09.809Z,8.00
2018-10-18T06:52:38.220Z,8.00
2018-10-18T06:55:06.798Z,8.00
2018-10-18T06:57:35.137Z,8.10
2018-10-18T07:00:03.469Z,8.20
2018-10-18T07:02:31.759Z,8.30
2018-10-18T07:05:00.027Z,8.30
2018-10-18T07:07:28.353Z,8.40
2018-10-18T07:09:56.600Z,8.60
2018-10-18T07:12:24.865Z,8.60
2018-10-18T07:14:53.319Z,8.80
2018-10-18T07:17:21.498Z,8.90
2018-10-18T07:19:49.831Z,9.10
2018-10-18T07:22:18.163Z,9.20
2018-10-18T07:24:46.392Z,9.30
2018-10-18T07:27:14.642Z,9.40
2018-10-18T07:29:42.828Z,9.40
2018-10-18T07:32:11.147Z,9.60
2018-10-18T07:34:39.343Z,9.80
2018-10-18T07:37:07.573Z,9.90
2018-10-18T07:39:35.754Z,10.10
2018-10-18T07:42:04.167Z,10.20
2018-10-18T07:44:32.320Z,10.40
2018-10-18T07:47:00.651Z,10.70
2018-10-18T07:49:28.867Z,10.80
2018-10-18T07:51:57.194Z,11.00
2018-10-18T07:54:25.551Z,11.20
2018-10-18T07:56:53.742Z,11.40
2018-10-18T07:59:21.886Z,11.70
2018-10-18T08:01:50.187Z,12.00
2018-10-18T08:04:18.491Z,12.00
2018-10-18T08:06:46.807Z,12.20
2018-10-18T08:09:15.102Z,12.40
2018-10-18T08:11:43.513Z,12.60
2018-10-18T08:14:11.929Z,12.90
2018-10-18T08:16:40.291Z,13.00
2018-10-18T08:19:08.600Z,13.10
2018-10-18T08:21:37.019Z,13.40
2018-10-18T08:24:05.427Z,13.60
2018-10-18T08:26:33.734Z,13.90
2018-10-18T08:29:02.111Z,14.00
2018-10-18T08:31:30.540Z,14.30
2018-10-18T08:33:58.795Z,14.30
2018-10-18T08:36:27.084Z,14.50
2018-10-18T08:38:55.499Z,14.50
2018-10-18T08:41:23.819Z,14.50
2018-10-18T08:43:52.246Z,14.60
2018-10-18T08:46:20.576Z,14.90
2018-10-18T08:48:48.872Z,15.10
2018-10-18T08:51:17.121Z,15.30
2018-10-18T08:53:45.462Z,15.50
2018-10-18T08:56:13.795Z,15.70
2018-10-18T08:58:42.143Z,16.00
2018-10-18T09:01:10.568Z,16.20
2018-10-18T09:03:38.934Z,16.20
2018-10-18T09:06:07.244Z,16.30
2018-10-18T09:08:35.596Z,16.50
2018-10-18T09:11:03.944Z,16.50
2018-10-18T09:13:32.291Z,16.80
2018-10-18T09:16:00.632Z,17.10
2018-10-18T09:18:28.880Z,17.30
2018-10-18T09:20:57.257Z,17.50
2018-10-18T09:23:25.594Z,17.40
2018-10-18T09:25:53.947Z,17.40
2018-10-18T09:28:22.231Z,17.50
2018-10-18T09:30:50.566Z,17.60
2018-10-18T09:33:18.901Z,17.70
2018-10-18T09:35:47.289Z,17.80
2018-10-18T09:38:15.689Z,17.80
2018-10-18T09:40:44.054Z,18.00
2018-10-18T09:43:12.528Z,18.10
2018-10-18T09:45:40.804Z,18.10
2018-10-18T09:48:09.123Z,18.10
2018-10-18T09:50:37.487Z,18.20
2018-10-18T09:53:06.059Z,18.20
2018-10-18T09:55:34.525Z,18.30
2018-10-18T09:58:02.771Z,18.40
2018-10-18T10:00:36.462Z,18.50
2018-10-18T10:03:12.907Z,18.70
2018-10-18T10:05:41.480Z,18.80
2018-10-18T10:08:09.862Z,19.10
2018-10-18T10:10:38.452Z,19.30
2018-10-18T10:13:07.304Z,19.40
2018-10-18T10:15:35.609Z,19.60
2018-10-18T10:18:04.249Z,19.80
2018-10-18T10:20:32.666Z,19.90
2018-10-18T10:23:01.051Z,20.00
2018-10-18T10:25:29.425Z,20.20
2018-10-18T10:27:57.967Z,20.30
2018-10-18T10:30:26.956Z,20.40
2018-10-18T10:32:55.296Z,20.50
2018-10-18T10:35:23.514Z,20.60
2018-10-18T10:37:51.818Z,20.70
2018-10-18T10:40:20.250Z,20.60
2018-10-18T10:42:48.615Z,20.60
2018-10-18T10:45:16.936Z,20.70
2018-10-18T10:47:45.245Z,20.80
2018-10-18T10:50:13.701Z,20.80
2018-10-18T10:52:41.938Z,20.70
2018-10-18T10:55:11.074Z,20.80
2018-10-18T10:57:39.344Z,20.90
2018-10-18T11:00:07.782Z,20.80
2018-10-18T11:02:36.111Z,20.80
2018-10-18T11:05:04.710Z,20.70
2018-10-18T11:07:32.998Z,20.80
2018-10-18T11:10:01.379Z,20.70
2018-10-18T11:12:29.805Z,20.70
2018-10-18T11:14:58.143Z,20.70
2018-10-18T11:17:26.491Z,20.70
2018-10-18T11:19:54.843Z,20.80
2018-10-18T11:22:23.146Z,20.80
2018-10-18T11:24:52.431Z,20.90
2018-10-18T11:27:20.786Z,21.00
2018-10-18T11:29:48.995Z,20.90
2018-10-18T11:32:17.458Z,20.90
2018-10-18T11:34:45.705Z,20.90
2018-10-18T11:37:14.028Z,20.90
2018-10-18T11:39:42.365Z,20.90
2018-10-18T11:42:10.783Z,20.80
2018-10-18T11:44:39.053Z,20.80
2018-10-18T11:47:07.511Z,20.80
2018-10-18T11:49:35.835Z,20.80
2018-10-18T11:52:04.488Z,20.80
2018-10-18T11:54:32.789Z,20.90
2018-10-18T11:57:01.158Z,20.90
2018-10-18T11:59:29.540Z,20.90
2018-10-18T12:01:57.862Z,20.90
2018-10-18T12:04:26.143Z,21.00
2018-10-18T12:06:54.569Z,21.00
2018-10-18T12:09:22.920Z,21.00
2018-10-18T12:11:51.251Z,21.10
2018-10-18T12:14:19.559Z,21.10
2018-10-18T12:16:47.895Z,21.30
2018-10-18T12:19:16.341Z,21.20
2018-10-18T12:21:44.635Z,21.20
2018-10-18T12:24:12.945Z,21.30
2018-10-18T12:26:41.311Z,21.10
2018-10-18T12:29:09.728Z,21.20
2018-10-18T12:31:38.056Z,21.30
2018-10-18T12:34:06.391Z,21.40
2018-10-18T12:36:34.726Z,21.40
2018-10-18T12:39:03.498Z,21.40
2018-10-18T12:41:31.902Z,21.40
2018-10-18T12:44:00.209Z,21.40
2018-10-18T12:46:28.519Z,21.40
2018-10-18T12:48:56.893Z,21.40
2018-10-18T12:51:25.227Z,21.30
2018-10-18T12:53:53.597Z,21.30
2018-10-18T12:56:21.857Z,21.30
2018-10-18T12:58:50.162Z,21.20
2018-10-18T13:01:18.479Z,21.40
2018-10-18T13:03:46.855Z,21.40
2018-10-18T13:06:15.232Z,21.40
2018-10-18T13:08:43.519Z,21.40
2018-10-18T13:11:11.853Z,21.50
2018-10-18T13:13:40.182Z,21.50
2018-10-18T13:16:08.514Z,21.50
2018-10-18T13:18:36.865Z,21.50
2018-10-18T13:21:05.555Z,21.60
2018-10-18T13:23:33.891Z,21.50
2018-10-18T13:26:02.286Z,21.50
2018-10-18T13:28:30.555Z,21.30
2018-10-18T13:30:58.840Z,21.30
2018-10-18T13:33:27.172Z,21.40
2018-10-18T13:35:55.552Z,21.30
2018-10-18T13:38:23.887Z,21.30
2018-10-18T13:40:52.238Z,21.30
2018-10-18T13:43:20.551Z,21.40
2018-10-18T13:45:48.930Z,21.40
2018-10-18T13:48:17.319Z,21.40
2018-10-18T13:50:45.672Z,21.40
2018-10-18T13:53:14.062Z,21.40
2018-10-18T13:55:43.003Z,21.30
2018-10-18T13:58:11.404Z,21.30
2018-10-18T14:00:39.744Z,21.30
2018-10-18T14:03:08.144Z,21.20
2018-10-18T14:05:36.471Z,21.20
2018-10-18T14:08:04.880Z,21.10
2018-10-18T14:10:33.295Z,21.10
2018-10-18T14:13:01.682Z,21.10
2018-10-18T14:15:30.076Z,21.00
2018-10-18T14:17:58.501Z,20.90
2018-10-18T14:20:26.749Z,20.90
2018-10-18T14:22:55.137Z,21.00
2018-10-18T14:25:23.485Z,21.00
2018-10-18T14:27:51.887Z,21.00
2018-10-18T14:30:20.408Z,21.00
2018-10-18T14:32:48.624Z,21.10
2018-10-18T14:35:17.042Z,21.00
2018-10-18T14:37:45.363Z,20.90
2018-10-18T14:40:13.714Z,20.80
2018-10-18T14:42:42.007Z,20.80
2018-10-18T14:45:10.445Z,20.70
2018-10-18T14:47:38.778Z,20.70
2018-10-18T14:50:09.635Z,20.70
2018-10-18T14:52:37.837Z,20.60
2018-10-18T14:55:06.230Z,20.60
2018-10-18T14:57:34.601Z,20.60
2018-10-18T15:00:02.936Z,20.60
2018-10-18T15:02:31.260Z,20.60
2018-10-18T15:04:59.599Z,20.60
2018-10-18T15:07:27.936Z,20.50
2018-10-18T15:09:56.273Z,20.50
2018-10-18T15:12:24.677Z,20.40
2018-10-18T15:14:52.974Z,20.50
2018-10-18T15:17:21.298Z,20.40
2018-10-18T15:19:49.648Z,20.40
2018-10-18T15:22:18.020Z,20.40
2018-10-18T15:24:46.406Z,20.40
2018-10-18T15:27:14.852Z,20.30
2018-10-18T15:29:43.139Z,20.30
2018-10-18T15:32:11.620Z,20.30
2018-10-18T15:34:39.815Z,20.20
2018-10-18T15:37:08.095Z,20.20
2018-10-18T15:39:36.544Z,20.20
2018-10-18T15:42:05.050Z,20.10
2018-10-18T15:44:33.415Z,20.10
2018-10-18T15:47:01.787Z,20.00
2018-10-18T15:49:30.106Z,20.00
2018-10-18T15:51:58.415Z,20.00
2018-10-18T15:54:26.887Z,19.90
2018-10-18T15:56:55.140Z,19.80
2018-10-18T15:59:23.543Z,19.80
2018-10-18T16:01:52.029Z,19.70
2018-10-18T16:04:20.362Z,19.70
2018-10-18T16:06:48.813Z,19.60
2018-10-18T16:09:17.125Z,19.50
2018-10-18T16:11:45.467Z,19.50
2018-10-18T16:14:13.870Z,19.40
2018-10-18T16:16:41.993Z,19.30
2018-10-18T16:19:10.235Z,19.30
2018-10-18T16:21:38.428Z,19.20
2018-10-18T16:24:06.645Z,19.10
2018-10-18T16:26:34.916Z,19.00
2018-10-18T16:29:03.090Z,18.90
2018-10-18T16:31:31.394Z,18.80
2018-10-18T16:33:59.865Z,18.80
2018-10-18T16:36:28.144Z,18.70
2018-10-18T16:38:56.485Z,18.60
2018-10-18T16:41:25.019Z,18.50
2018-10-18T16:43:53.181Z,18.40
2018-10-18T16:46:21.465Z,18.40
2018-10-18T16:48:49.651Z,18.20
2018-10-18T16:51:17.808Z,18.20
2018-10-18T16:53:46.001Z,18.10
2018-10-18T16:56:14.374Z,18.00
2018-10-18T16:58:42.515Z,17.90
2018-10-18T17:01:10.768Z,17.80
2018-10-18T17:03:38.931Z,17.80
2018-10-18T17:06:07.274Z,17.60
2018-10-18T17:08:35.271Z,17.50
2018-10-18T17:11:03.455Z,17.40
2018-10-18T17:13:31.755Z,17.30
2018-10-18T17:15:59.999Z,17.20
2018-10-18T17:18:28.293Z,17.10
2018-10-18T17:20:56.396Z,16.80
2018-10-18T17:23:24.556Z,16.80
2018-10-18T17:25:52.777Z,16.70
2018-10-18T17:28:20.946Z,16.50
2018-10-18T17:30:49.108Z,16.40
2018-10-18T17:33:17.290Z,16.30
2018-10-18T17:35:45.547Z,16.20
2018-10-18T17:38:13.826Z,16.00
2018-10-18T17:40:42.027Z,15.90
2018-10-18T17:43:10.046Z,15.90
2018-10-18T17:45:38.230Z,15.90
2018-10-18T17:48:06.476Z,15.90
2018-10-18T17:50:34.719Z,15.80
2018-10-18T17:53:02.976Z,15.60
2018-10-18T17:55:32.183Z,15.40
2018-10-18T17:58:00.388Z,15.30
2018-10-18T18:00:28.711Z,15.30
2018-10-18T18:02:56.835Z,15.20
2018-10-18T18:05:25.028Z,15.10
2018-10-18T18:07:53.248Z,15.00
2018-10-18T18:10:21.394Z,15.00
2018-10-18T18:12:49.609Z,15.00
2018-10-18T18:15:17.819Z,15.00
2018-10-18T18:17:46.133Z,14.90
2018-10-18T18:20:14.320Z,14.90
2018-10-18T18:22:42.640Z,14.90
2018-10-18T18:25:11.894Z,14.80
2018-10-18T18:27:40.241Z,14.80
2018-10-18T18:30:10.707Z,14.70
2018-10-18T18:32:39.004Z,14.70
2018-10-18T18:35:07.335Z,14.60
2018-10-18T18:37:36.020Z,14.50
2018-10-18T18:40:04.308Z,14.40
2018-10-18T18:42:32.786Z,14.30
2018-10-18T18:45:06.569Z,14.30
2018-10-18T18:47:34.851Z,14.30
2018-10-18T18:50:03.173Z,14.20
2018-10-18T18:52:31.478Z,14.00
2018-10-18T18:54:59.643Z,13.90
2018-10-18T18:57:27.804Z,13.90
2018-10-18T18:59:55.988Z,13.90
2018-10-18T19:02:24.210Z,13.90
2018-10-18T19:04:52.480Z,13.80
2018-10-18T19:07:21.830Z,13.80
2018-10-18T19:09:50.111Z,13.70
2018-10-18T19:12:18.366Z,13.70
2018-10-18T19:14:46.631Z,13.70
2018-10-18T19:17:14.904Z,13.60
2018-10-18T19:19:43.200Z,13.60
2018-10-18T19:22:11.352Z,13.50
2018-10-18T19:24:39.526Z,13.40
2018-10-18T19:27:07.733Z,13.40
2018-10-18T19:29:35.910Z,13.40
2018-10-18T19:32:04.532Z,13.40
2018-10-18T19:34:32.690Z,13.30
2018-10-18T19:37:00.897Z,13.40
2018-10-18T19:39:29.087Z,13.30
2018-10-18T19:41:57.366Z,13.40
2018-10-18T19:44:25.559Z,13.30
2018-10-18T19:46:53.795Z,13.30
2018-10-18T19:49:21.988Z,13.20
2018-10-18T19:51:50.301Z,13.10
2018-10-18T19:54:18.679Z,13.10
2018-10-18T19:56:46.925Z,12.90
2018-10-18T19:59:15.131Z,12.80
2018-10-18T20:01:43.330Z,12.80
2018-10-18T20:04:11.573Z,12.80
2018-10-18T20:06:39.707Z,12.80
2018-10-18T20:09:09.715Z,12.80
2018-10-18T20:11:37.927Z,12.70
2018-10-18T20:14:06.199Z,12.70
2018-10-18T20:16:34.347Z,12.70
2018-10-18T20:19:02.777Z,12.70
2018-10-18T20:21:31.035Z,12.50
2018-10-18T20:23:59.373Z,12.50
2018-10-18T20:26:27.692Z,12.50
2018-10-18T20:28:55.974Z,12.50
2018-10-18T20:31:24.181Z,12.50
2018-10-18T20:33:52.386Z,12.40
2018-10-18T20:36:20.576Z,12.30
2018-10-18T20:38:48.841Z,12.30
2018-10-18T20:41:17.191Z,12.30
2018-10-18T20:43:45.390Z,12.10
2018-10-18T20:46:13.666Z,12.10
2018-10-18T20:48:41.954Z,12.10
2018-10-18T20:51:10.313Z,12.10
2018-10-18T20:53:38.475Z,12.10
2018-10-18T20:56:06.776Z,12.00
2018-10-18T20:58:36.112Z,12.10
2018-10-18T21:01:05.654Z,12.10
2018-10-18T21:03:34.161Z,12.00
2018-10-18T21:06:02.455Z,12.00
2018-10-18T21:08:30.872Z,11.70
2018-10-18T21:10:59.121Z,11.70
2018-10-18T21:13:27.310Z,11.60
2018-10-18T21:15:55.572Z,11.60
2018-10-18T21:18:23.787Z,11.50
2018-10-18T21:20:52.101Z,11.50
2018-10-18T21:23:20.363Z,11.40
2018-10-18T21:25:48.686Z,11.40
2018-10-18T21:28:16.997Z,11.50
2018-10-18T21:30:45.503Z,11.50
2018-10-18T21:33:13.931Z,11.50
2018-10-18T21:35:43.231Z,11.50
2018-10-18T21:38:11.659Z,11.50
2018-10-18T21:40:39.896Z,11.40
2018-10-18T21:43:08.146Z,11.30
2018-10-18T21:45:36.362Z,11.30
2018-10-18T21:48:05.148Z,11.30
2018-10-18T21:50:33.338Z,11.30
2018-10-18T21:53:01.659Z,11.30
2018-10-18T21:55:29.840Z,11.30
2018-10-18T21:57:58.730Z,11.30
2018-10-18T22:00:27.039Z,11.30
2018-10-18T22:02:55.409Z,11.00
2018-10-18T22:05:24.468Z,11.00
2018-10-18T22:07:53.851Z,11.10
2018-10-18T22:10:22.874Z,11.00
2018-10-18T22:12:51.115Z,11.00
2018-10-18T22:15:19.790Z,10.80
2018-10-18T22:17:47.966Z,10.80
2018-10-18T22:20:16.156Z,10.80
2018-10-18T22:22:44.419Z,10.80
2018-10-18T22:25:12.606Z,10.70
2018-10-18T22:27:40.866Z,10.60
2018-10-18T22:30:09.279Z,10.60
2018-10-18T22:32:37.685Z,10.60
2018-10-18T22:35:06.176Z,10.70
2018-10-18T22:37:34.707Z,10.60
2018-10-18T22:40:03.270Z,10.60
2018-10-18T22:42:31.639Z,10.60
2018-10-18T22:44:59.988Z,10.60
2018-10-18T22:47:28.407Z,10.50
2018-10-18T22:49:56.671Z,10.40
2018-10-18T22:52:25.218Z,10.20
2018-10-18T22:54:53.661Z,10.20
2018-10-18T22:57:21.919Z,10.20
2018-10-18T22:59:50.107Z,10.20
2018-10-18T23:02:18.299Z,10.10
2018-10-18T23:04:46.531Z,10.10
2018-10-18T23:07:14.719Z,10.20
2018-10-18T23:09:43.011Z,10.20
2018-10-18T23:12:11.194Z,10.20
2018-10-18T23:14:39.399Z,10.10
2018-10-18T23:17:07.833Z,10.10
2018-10-18T23:19:36.232Z,10.10
2018-10-18T23:22:06.650Z,10.10
2018-10-18T23:24:36.490Z,9.90
2018-10-18T23:27:05.052Z,9.90
2018-10-18T23:29:33.293Z,9.80
2018-10-18T23:32:02.782Z,9.80
2018-10-18T23:34:31.183Z,9.70
2018-10-18T23:36:59.868Z,9.60
2018-10-18T23:39:28.216Z,9.60
2018-10-18T23:41:56.411Z,9.70
2018-10-18T23:44:24.587Z,9.70
2018-10-18T23:46:52.764Z,9.70
2018-10-18T23:49:20.917Z,9.80
2018-10-18T23:51:49.076Z,9.80
2018-10-18T23:54:17.267Z,9.90
2018-10-18T23:56:45.414Z,9.90
2018-10-18T23:59:13.663Z,9.90
